Qaanaaq

KL  EN  DA
ASIAQ
Weather Now GREENLAND SURVEY
Updated [WGT/WGST] Temperature [°C] Wind [m/s] Air pressure [hPa] Relative humidity [%] Precipitation [mm]
Present Wind chill Speed Max
17.01 13:00-18,80,00,4 ⇓0,71010830,0
17.01 12:00-20,90,01,1 ⇘1,51010830,0
17.01 11:00-21,30,00,6 ⇘1,21011820,0
17.01 10:00-18,6-23,71,8 ⇖2,11011830,0
17.01 09:00-17,50,00,7 ⇓0,81011860,0
17.01 08:00-18,40,00,8 ⇘1,11012850,0
17.01 07:00-19,90,01,2 ⇘1,71013850,0
17.01 06:00-21,20,00,7 ⇑1,21013840,0
17.01 05:00-20,90,01,0 ⇑1,81013830,0
17.01 04:00-18,40,00,7 ⇒1,91013810,0
17.01 03:00-19,70,00,7 ⇒1,61013850,0
17.01 02:00-15,60,00,7 ⇒1,21014880,0
17.01 01:00-15,60,00,9 ⇘1,11014860,0
17.01 00:00-16,10,00,8 ⇖1,11015840,0
16.01 23:00-15,60,00,3 ⇗0,71015820,0
16.01 22:00-13,60,01,0 ⇓1,71015780,0
16.01 21:00-14,40,00,0 ⇓0,01016860,0
16.01 20:00-14,20,00,9 ⇖1,11016860,0
16.01 19:00-14,70,00,9 ⇗3,81016870,0
16.01 18:00-14,60,00,2 ⇖1,01015870,2
16.01 17:00-12,9-18,52,7 ⇐3,21015810,1
16.01 16:00-13,4-21,44,7 ⇖5,41015830,1
16.01 15:00-13,5-20,23,4 ⇖3,61014850,0
16.01 14:00-13,7-19,93,0 ⇖3,71013840,0
16.01 13:00-14,1-19,32,2 ⇖2,71013860,0
Position: (77.48527778,-69.3744444444)

[Back]